N2324K KASE-
Flight info
| Callsign | N2324K |
|---|---|
| Flight time | N/A |
| Altitude | |
| Route | VFR E |
| Aircraft | BE36/L-DOV/C |
Departure
| Time | 2026-04-22 01:02 |
|---|---|
| Airport | Aspen-Pitkin County Airport (Sardy Field) (KASE) |
Arrival
| Time | N/A |
|---|---|
| Airport | - |
| Time | Latitude | Longitude | Altitude | Speed | Heading |
|---|---|---|---|---|---|
| 2026-04-22 00:51 | 39.22684 | -106.86901 | 7726 ft | 0 kts | 242° |
| 2026-04-22 00:52 | 39.22684 | -106.86902 | 7726 ft | 0 kts | 242° |
| 2026-04-22 00:52 | 39.22668 | -106.86923 | 7727 ft | 4 kts | 195° |
| 2026-04-22 00:53 | 39.22631 | -106.86914 | 7729 ft | 7 kts | 158° |
| 2026-04-22 00:53 | 39.22565 | -106.86886 | 7736 ft | 10 kts | 163° |
| 2026-04-22 00:53 | 39.22484 | -106.86844 | 7738 ft | 14 kts | 158° |
| 2026-04-22 00:53 | 39.22370 | -106.86793 | 7745 ft | 21 kts | 162° |
| 2026-04-22 00:54 | 39.22245 | -106.86730 | 7753 ft | 17 kts | 159° |
| 2026-04-22 00:54 | 39.22117 | -106.86670 | 7765 ft | 19 kts | 161° |
| 2026-04-22 00:54 | 39.21990 | -106.86608 | 7774 ft | 16 kts | 160° |
| 2026-04-22 00:54 | 39.21890 | -106.86561 | 7788 ft | 18 kts | 161° |
| 2026-04-22 00:55 | 39.21825 | -106.86531 | 7784 ft | 0 kts | 159° |
| 2026-04-22 00:55 | 39.21755 | -106.86497 | 7797 ft | 18 kts | 160° |
| 2026-04-22 00:55 | 39.21536 | -106.86388 | 7814 ft | 10 kts | 157° |
| 2026-04-22 00:56 | 39.21453 | -106.86352 | 7820 ft | 12 kts | 158° |
| 2026-04-22 00:56 | 39.21428 | -106.86340 | 7822 ft | 0 kts | 159° |
| 2026-04-22 00:56 | 39.21343 | -106.86300 | 7829 ft | 18 kts | 159° |
| 2026-04-22 00:56 | 39.21260 | -106.86260 | 7831 ft | 0 kts | 158° |
| 2026-04-22 00:57 | 39.21250 | -106.86255 | 7833 ft | 5 kts | 160° |
| 2026-04-22 00:57 | 39.21218 | -106.86249 | 7835 ft | 3 kts | 190° |
| 2026-04-22 00:57 | 39.21216 | -106.86249 | 7835 ft | 0 kts | 191° |
| 2026-04-22 00:58 | 39.21186 | -106.86276 | 7836 ft | 11 kts | 236° |
| 2026-04-22 00:58 | 39.21182 | -106.86345 | 7832 ft | 0 kts | 327° |
| 2026-04-22 00:59 | 39.21204 | -106.86402 | 7833 ft | 12 kts | 265° |
| 2026-04-22 00:59 | 39.21182 | -106.86462 | 7831 ft | 6 kts | 85° |
| 2026-04-22 00:59 | 39.21183 | -106.86460 | 7829 ft | 0 kts | 65° |
| 2026-04-22 01:01 | 39.21187 | -106.86452 | 7828 ft | 6 kts | 58° |
| 2026-04-22 01:01 | 39.21248 | -106.86379 | 7828 ft | 18 kts | 353° |
| 2026-04-22 01:01 | 39.21509 | -106.86498 | 7817 ft | 81 kts | 341° |
| 2026-04-22 01:02 | 39.22264 | -106.86841 | 7856 ft | 131 kts | 337° |
| 2026-04-22 01:02 | 39.23107 | -106.86989 | 8335 ft | 125 kts | 359° |
| 2026-04-22 01:02 | 39.23952 | -106.86718 | 8766 ft | 124 kts | 12° |
| 2026-04-22 01:02 | 39.24819 | -106.86385 | 9246 ft | 132 kts | 10° |
| 2026-04-22 01:03 | 39.25738 | -106.86028 | 9831 ft | 137 kts | 11° |
| 2026-04-22 01:03 | 39.26668 | -106.85704 | 10376 ft | 140 kts | 7° |
| 2026-04-22 01:03 | 39.27622 | -106.85580 | 10920 ft | 141 kts | 356° |
| 2026-04-22 01:03 | 39.28628 | -106.85577 | 11465 ft | 145 kts | 354° |
| 2026-04-22 01:04 | 39.29595 | -106.85792 | 12099 ft | 138 kts | 329° |
| 2026-04-22 01:04 | 39.30331 | -106.86592 | 12561 ft | 145 kts | 310° |
| 2026-04-22 01:04 | 39.31065 | -106.87619 | 12675 ft | 162 kts | 309° |
| 2026-04-22 01:04 | 39.31819 | -106.88731 | 12620 ft | 168 kts | 308° |
| 2026-04-22 01:05 | 39.32588 | -106.89897 | 12523 ft | 174 kts | 309° |
| 2026-04-22 01:05 | 39.33379 | -106.91109 | 12406 ft | 178 kts | 308° |
| 2026-04-22 01:05 | 39.34131 | -106.92382 | 12361 ft | 177 kts | 298° |
| 2026-04-22 01:05 | 39.34332 | -106.93878 | 12355 ft | 169 kts | 263° |
| 2026-04-22 01:06 | 39.34144 | -106.95378 | 12358 ft | 170 kts | 262° |
| 2026-04-22 01:06 | 39.33951 | -106.96872 | 12357 ft | 167 kts | 261° |
| 2026-04-22 01:06 | 39.33757 | -106.98355 | 12353 ft | 168 kts | 261° |
| 2026-04-22 01:06 | 39.33563 | -106.99841 | 12337 ft | 168 kts | 261° |
| 2026-04-22 01:07 | 39.33365 | -107.01338 | 12205 ft | 170 kts | 261° |
| 2026-04-22 01:07 | 39.33206 | -107.02860 | 12058 ft | 172 kts | 267° |
| 2026-04-22 01:07 | 39.33270 | -107.04413 | 11914 ft | 174 kts | 278° |
| 2026-04-22 01:07 | 39.33583 | -107.05929 | 11758 ft | 175 kts | 291° |
| 2026-04-22 01:08 | 39.34193 | -107.07287 | 11614 ft | 175 kts | 303° |
| 2026-04-22 01:08 | 39.34908 | -107.08569 | 11461 ft | 175 kts | 303° |
| 2026-04-22 01:08 | 39.35602 | -107.09823 | 11312 ft | 172 kts | 302° |
| 2026-04-22 01:08 | 39.36294 | -107.11088 | 11160 ft | 173 kts | 303° |
| 2026-04-22 01:09 | 39.36990 | -107.12344 | 11003 ft | 170 kts | 302° |
| 2026-04-22 01:09 | 39.37663 | -107.13564 | 10903 ft | 166 kts | 305° |
| 2026-04-22 01:09 | 39.38345 | -107.14792 | 10747 ft | 169 kts | 302° |
| 2026-04-22 01:09 | 39.39038 | -107.16029 | 10579 ft | 172 kts | 310° |
| 2026-04-22 01:10 | 39.39908 | -107.17138 | 10286 ft | 178 kts | 313° |
| 2026-04-22 01:10 | 39.40784 | -107.18285 | 9991 ft | 180 kts | 312° |
| 2026-04-22 01:10 | 39.41715 | -107.19380 | 9694 ft | 183 kts | 321° |
| 2026-04-22 01:10 | 39.42804 | -107.20244 | 9394 ft | 186 kts | 335° |
| 2026-04-22 01:11 | 39.44100 | -107.20249 | 9091 ft | 193 kts | 11° |
| 2026-04-22 01:11 | 39.45384 | -107.19712 | 8801 ft | 194 kts | 15° |
| 2026-04-22 01:11 | 39.46672 | -107.19568 | 8491 ft | 180 kts | 340° |
| 2026-04-22 01:11 | 39.47627 | -107.20417 | 8350 ft | 155 kts | 313° |
| 2026-04-22 01:12 | 39.48382 | -107.21282 | 8343 ft | 141 kts | 324° |
| 2026-04-22 01:12 | 39.48907 | -107.22210 | 8345 ft | 126 kts | 283° |
| 2026-04-22 01:12 | 39.49460 | -107.23042 | 8344 ft | 129 kts | 331° |
| 2026-04-22 01:12 | 39.50019 | -107.23829 | 8341 ft | 120 kts | 275° |
| 2026-04-22 01:13 | 39.50227 | -107.24826 | 8350 ft | 119 kts | 317° |
| 2026-04-22 01:13 | 39.51035 | -107.24784 | 8375 ft | 131 kts | 37° |
| 2026-04-22 01:13 | 39.51273 | -107.23703 | 8483 ft | 134 kts | 114° |
| 2026-04-22 01:13 | 39.50619 | -107.22970 | 8571 ft | 129 kts | 171° |
| 2026-04-22 01:14 | 39.49702 | -107.22791 | 8545 ft | 140 kts | 179° |
| 2026-04-22 01:14 | 39.48708 | -107.22799 | 8470 ft | 141 kts | 200° |
| 2026-04-22 01:14 | 39.48010 | -107.23539 | 8413 ft | 131 kts | 239° |
| 2026-04-22 01:14 | 39.47408 | -107.24583 | 7907 ft | 149 kts | 235° |
| 2026-04-22 01:15 | 39.46938 | -107.25722 | 7737 ft | 134 kts | 263° |
| 2026-04-22 01:15 | 39.47008 | -107.26866 | 7301 ft | 131 kts | 278° |
| 2026-04-22 01:15 | 39.47277 | -107.27951 | 6871 ft | 121 kts | 289° |
| 2026-04-22 01:15 | 39.47615 | -107.28836 | 6567 ft | 105 kts | 299° |
| 2026-04-22 01:16 | 39.48070 | -107.29534 | 6386 ft | 103 kts | 312° |
| 2026-04-22 01:16 | 39.48654 | -107.30028 | 6263 ft | 99 kts | 341° |
| 2026-04-22 01:16 | 39.49331 | -107.30204 | 6132 ft | 98 kts | 335° |
| 2026-04-22 01:16 | 39.49962 | -107.30518 | 6000 ft | 90 kts | 335° |
| 2026-04-22 01:17 | 39.50461 | -107.30836 | 5917 ft | 69 kts | 334° |
| 2026-04-22 01:17 | 39.50701 | -107.30981 | 5913 ft | 14 kts | 339° |
| 2026-04-22 01:17 | 39.50742 | -107.30958 | 5913 ft | 0 kts | 56° |